sensor_id;sensor_type;location;lat;lon;timestamp;pressure;altitude;pressure_sealevel;temperature;humidity
47710;BME280;33473;51.640;5.892;2023-08-06T00:00:42;100300;;;22.0;56.0
47710;BME280;33473;51.640;5.892;2023-08-06T00:14:03;100300;;;22.0;56.0
47710;BME280;33473;51.640;5.892;2023-08-06T00:27:24;100200;;;22.0;56.0
47710;BME280;33473;51.640;5.892;2023-08-06T00:40:45;100200;;;22.0;56.0
47710;BME280;33473;51.640;5.892;2023-08-06T00:54:05;100200;;;22.1;56.0
47710;BME280;33473;51.640;5.892;2023-08-06T01:07:26;100200;;;22.0;56.0
47710;BME280;33473;51.640;5.892;2023-08-06T01:20:46;100200;;;22.0;56.0
47710;BME280;33473;51.640;5.892;2023-08-06T01:34:07;100200;;;22.1;57.0
47710;BME280;33473;51.640;5.892;2023-08-06T01:47:27;100200;;;22.1;56.0
47710;BME280;33473;51.640;5.892;2023-08-06T02:00:48;100200;;;22.1;57.0
47710;BME280;33473;51.640;5.892;2023-08-06T02:14:08;100200;;;22.0;56.0
47710;BME280;33473;51.640;5.892;2023-08-06T02:27:27;100200;;;22.0;56.0
47710;BME280;33473;51.640;5.892;2023-08-06T02:40:48;100200;;;22.0;56.0
47710;BME280;33473;51.640;5.892;2023-08-06T02:54:08;100200;;;22.0;56.0
47710;BME280;33473;51.640;5.892;2023-08-06T03:07:28;100200;;;22.0;56.0
47710;BME280;33473;51.640;5.892;2023-08-06T03:20:47;100200;;;21.9;56.0
47710;BME280;33473;51.640;5.892;2023-08-06T03:34:09;100200;;;21.7;57.0
47710;BME280;33473;51.640;5.892;2023-08-06T03:47:28;100200;;;21.7;57.0
47710;BME280;33473;51.640;5.892;2023-08-06T04:00:48;100200;;;21.6;57.0
47710;BME280;33473;51.640;5.892;2023-08-06T04:14:09;100200;;;21.5;56.0
47710;BME280;33473;51.640;5.892;2023-08-06T04:27:29;100200;;;21.4;56.0
47710;BME280;33473;51.640;5.892;2023-08-06T04:40:49;100200;;;21.4;57.0
47710;BME280;33473;51.640;5.892;2023-08-06T04:54:08;100200;;;21.4;57.0
47710;BME280;33473;51.640;5.892;2023-08-06T05:07:28;100200;;;21.6;57.0
47710;BME280;33473;51.640;5.892;2023-08-06T05:20:48;100200;;;21.8;58.0
47710;BME280;33473;51.640;5.892;2023-08-06T05:34:09;100200;;;22.0;58.0
47710;BME280;33473;51.640;5.892;2023-08-06T05:47:30;100200;;;22.2;58.0
47710;BME280;33473;51.640;5.892;2023-08-06T06:00:51;100300;;;22.5;58.0
47710;BME280;33473;51.640;5.892;2023-08-06T06:14:11;100300;;;22.7;58.0
47710;BME280;33473;51.640;5.892;2023-08-06T06:27:31;100300;;;22.9;57.0
47710;BME280;33473;51.640;5.892;2023-08-06T06:40:51;100300;;;23.2;57.0
47710;BME280;33473;51.640;5.892;2023-08-06T06:54:12;100300;;;23.4;57.0
47710;BME280;33473;51.640;5.892;2023-08-06T07:07:33;100300;;;23.7;55.0
47710;BME280;33473;51.640;5.892;2023-08-06T07:20:53;100300;;;23.7;55.0
47710;BME280;33473;51.640;5.892;2023-08-06T07:34:13;100300;;;23.6;54.0
47710;BME280;33473;51.640;5.892;2023-08-06T07:47:34;100400;;;23.4;54.0
47710;BME280;33473;51.640;5.892;2023-08-06T08:00:53;100400;;;23.1;55.0
47710;BME280;33473;51.640;5.892;2023-08-06T08:14:15;100400;;;23.3;56.0
47710;BME280;33473;51.640;5.892;2023-08-06T08:27:34;100400;;;23.3;55.0
47710;BME280;33473;51.640;5.892;2023-08-06T08:40:54;100400;;;23.0;55.0
47710;BME280;33473;51.640;5.892;2023-08-06T08:54:14;100400;;;22.8;57.0
47710;BME280;33473;51.640;5.892;2023-08-06T09:07:34;100400;;;22.3;57.0
47710;BME280;33473;51.640;5.892;2023-08-06T09:20:55;100500;;;21.3;56.0
47710;BME280;33473;51.640;5.892;2023-08-06T09:34:14;100400;;;20.7;58.0
47710;BME280;33473;51.640;5.892;2023-08-06T09:47:36;100500;;;20.9;59.0
47710;BME280;33473;51.640;5.892;2023-08-06T10:00:57;100500;;;20.9;59.0
47710;BME280;33473;51.640;5.892;2023-08-06T10:14:17;100500;;;20.9;61.0
47710;BME280;33473;51.640;5.892;2023-08-06T10:27:36;100500;;;21.0;60.0
47710;BME280;33473;51.640;5.892;2023-08-06T10:40:58;100500;;;21.1;60.0
47710;BME280;33473;51.640;5.892;2023-08-06T10:54:19;100500;;;21.4;60.0
47710;BME280;33473;51.640;5.892;2023-08-06T11:07:40;100500;;;21.4;60.0
47710;BME280;33473;51.640;5.892;2023-08-06T11:21:00;100500;;;21.4;59.0
47710;BME280;33473;51.640;5.892;2023-08-06T11:34:19;100600;;;21.3;59.0
47710;BME280;33473;51.640;5.892;2023-08-06T11:47:41;100600;;;21.2;60.0
47710;BME280;33473;51.640;5.892;2023-08-06T12:01:02;100600;;;21.6;59.0
47710;BME280;33473;51.640;5.892;2023-08-06T12:14:23;100600;;;21.6;59.0
47710;BME280;33473;51.640;5.892;2023-08-06T12:27:44;100600;;;21.7;60.0
47710;BME280;33473;51.640;5.892;2023-08-06T12:41:04;100600;;;21.4;60.0
47710;BME280;33473;51.640;5.892;2023-08-06T12:54:25;100600;;;21.3;60.0
47710;BME280;33473;51.640;5.892;2023-08-06T13:07:45;100600;;;21.3;60.0
47710;BME280;33473;51.640;5.892;2023-08-06T13:21:05;100700;;;21.8;59.0
47710;BME280;33473;51.640;5.892;2023-08-06T13:34:25;100700;;;21.6;58.0
47710;BME280;33473;51.640;5.892;2023-08-06T13:47:44;100700;;;21.8;58.0
47710;BME280;33473;51.640;5.892;2023-08-06T14:01:06;100700;;;21.7;57.0
47710;BME280;33473;51.640;5.892;2023-08-06T14:14:27;100700;;;21.9;56.0
47710;BME280;33473;51.640;5.892;2023-08-06T14:27:48;100700;;;21.7;57.0
47710;BME280;33473;51.640;5.892;2023-08-06T14:41:09;100700;;;21.6;56.0
47710;BME280;33473;51.640;5.892;2023-08-06T14:54:29;100700;;;21.4;57.0
47710;BME280;33473;51.640;5.892;2023-08-06T15:07:49;100800;;;21.4;57.0
47710;BME280;33473;51.640;5.892;2023-08-06T15:21:08;100800;;;21.5;57.0
47710;BME280;33473;51.640;5.892;2023-08-06T15:34:30;100800;;;21.7;57.0
47710;BME280;33473;51.640;5.892;2023-08-06T15:47:49;100800;;;21.6;58.0
47710;BME280;33473;51.640;5.892;2023-08-06T16:01:10;100800;;;21.6;58.0
47710;BME280;33473;51.640;5.892;2023-08-06T16:14:32;100800;;;21.1;60.0
47710;BME280;33473;51.640;5.892;2023-08-06T16:27:53;100900;;;20.9;60.0
47710;BME280;33473;51.640;5.892;2023-08-06T16:41:13;100900;;;20.7;59.0
47710;BME280;33473;51.640;5.892;2023-08-06T16:54:34;100900;;;20.5;60.0
47710;BME280;33473;51.640;5.892;2023-08-06T17:07:55;100900;;;20.8;58.0
47710;BME280;33473;51.640;5.892;2023-08-06T17:21:15;101000;;;20.7;58.0
47710;BME280;33473;51.640;5.892;2023-08-06T17:34:34;101000;;;20.4;59.0
47710;BME280;33473;51.640;5.892;2023-08-06T17:47:56;101000;;;20.4;59.0
47710;BME280;33473;51.640;5.892;2023-08-06T18:01:15;101000;;;20.6;58.0
47710;BME280;33473;51.640;5.892;2023-08-06T18:14:35;101000;;;20.6;58.0
47710;BME280;33473;51.640;5.892;2023-08-06T18:27:55;101000;;;20.1;58.0
47710;BME280;33473;51.640;5.892;2023-08-06T18:41:16;101000;;;20.3;57.0
47710;BME280;33473;51.640;5.892;2023-08-06T18:54:37;101000;;;20.4;57.0
47710;BME280;33473;51.640;5.892;2023-08-06T19:07:57;101000;;;20.2;57.0
47710;BME280;33473;51.640;5.892;2023-08-06T19:21:18;101100;;;19.5;58.0
47710;BME280;33473;51.640;5.892;2023-08-06T19:34:39;101100;;;19.8;58.0
47710;BME280;33473;51.640;5.892;2023-08-06T19:48:00;101100;;;19.4;59.0
47710;BME280;33473;51.640;5.892;2023-08-06T20:01:20;101100;;;19.5;59.0
47710;BME280;33473;51.640;5.892;2023-08-06T20:14:40;101100;;;19.4;59.0
47710;BME280;33473;51.640;5.892;2023-08-06T20:28:01;101100;;;19.2;60.0
47710;BME280;33473;51.640;5.892;2023-08-06T20:41:21;101100;;;19.5;59.0
47710;BME280;33473;51.640;5.892;2023-08-06T20:54:40;101100;;;19.2;60.0
47710;BME280;33473;51.640;5.892;2023-08-06T21:08:02;101100;;;19.5;59.0
47710;BME280;33473;51.640;5.892;2023-08-06T21:21:23;101100;;;19.0;59.0
47710;BME280;33473;51.640;5.892;2023-08-06T21:34:43;101100;;;19.4;59.0
47710;BME280;33473;51.640;5.892;2023-08-06T21:48:04;101100;;;18.8;60.0
47710;BME280;33473;51.640;5.892;2023-08-06T22:01:24;101100;;;19.3;59.0
47710;BME280;33473;51.640;5.892;2023-08-06T22:14:43;101100;;;18.9;60.0
47710;BME280;33473;51.640;5.892;2023-08-06T22:28:03;101100;;;18.9;61.0
47710;BME280;33473;51.640;5.892;2023-08-06T22:41:23;101100;;;18.8;61.0
47710;BME280;33473;51.640;5.892;2023-08-06T22:54:44;101100;;;18.9;61.0
47710;BME280;33473;51.640;5.892;2023-08-06T23:08:04;101100;;;18.9;60.0
47710;BME280;33473;51.640;5.892;2023-08-06T23:21:25;101100;;;18.9;60.0
47710;BME280;33473;51.640;5.892;2023-08-06T23:34:46;101100;;;19.0;59.0
47710;BME280;33473;51.640;5.892;2023-08-06T23:48:06;101100;;;19.2;59.0
